createdAt,value
2018-10-21T00:01:03.307Z,10.76
2018-10-21T00:02:10.351Z,10.76
2018-10-21T00:03:16.991Z,10.83
2018-10-21T00:04:23.210Z,10.76
2018-10-21T00:05:29.193Z,10.84
2018-10-21T00:06:35.173Z,10.78
2018-10-21T00:07:41.213Z,10.78
2018-10-21T00:08:47.310Z,10.70
2018-10-21T00:09:53.337Z,10.60
2018-10-21T00:10:59.326Z,10.66
2018-10-21T00:12:04.726Z,10.58
2018-10-21T00:13:10.823Z,10.68
2018-10-21T00:14:17.130Z,10.70
2018-10-21T00:15:24.514Z,10.67
2018-10-21T00:16:30.790Z,10.76
2018-10-21T00:17:36.890Z,10.66
2018-10-21T00:18:43.178Z,10.61
2018-10-21T00:19:49.176Z,10.57
2018-10-21T00:20:55.313Z,10.59
2018-10-21T00:22:01.608Z,10.71
2018-10-21T00:23:07.759Z,10.71
2018-10-21T00:24:13.835Z,10.69
2018-10-21T00:25:19.807Z,10.60
2018-10-21T00:26:25.883Z,10.48
2018-10-21T00:27:31.964Z,10.51
2018-10-21T00:28:38.063Z,10.51
2018-10-21T00:29:44.181Z,10.46
2018-10-21T00:30:50.468Z,10.38
2018-10-21T00:31:56.589Z,10.36
2018-10-21T00:33:02.967Z,10.35
2018-10-21T00:34:10.289Z,10.34
2018-10-21T00:35:15.845Z,10.28
2018-10-21T00:36:21.942Z,10.23
2018-10-21T00:37:28.023Z,10.24
2018-10-21T00:38:34.391Z,10.33
2018-10-21T00:39:40.310Z,10.37
2018-10-21T00:40:46.679Z,10.32
2018-10-21T00:41:52.753Z,10.37
2018-10-21T00:42:59.093Z,10.31
2018-10-21T00:44:04.714Z,10.19
2018-10-21T00:45:11.163Z,10.17
2018-10-21T00:46:17.409Z,10.28
2018-10-21T00:47:23.497Z,10.36
2018-10-21T00:48:29.536Z,10.26
2018-10-21T00:49:35.612Z,10.31
2018-10-21T00:50:41.549Z,10.43
2018-10-21T00:51:47.655Z,10.35
2018-10-21T00:52:53.877Z,10.39
2018-10-21T00:54:00.252Z,10.46
2018-10-21T00:55:13.846Z,10.55
2018-10-21T00:56:22.027Z,10.36
2018-10-21T00:57:28.085Z,10.27
2018-10-21T00:58:34.416Z,10.20
2018-10-21T00:59:40.739Z,10.26
2018-10-21T01:00:47.119Z,10.25
2018-10-21T01:01:51.978Z,10.21
2018-10-21T01:02:58.395Z,10.22
2018-10-21T01:04:04.645Z,10.40
2018-10-21T01:05:10.577Z,10.27
2018-10-21T01:06:16.302Z,10.16
2018-10-21T01:07:22.354Z,10.09
2018-10-21T01:08:28.677Z,10.20
2018-10-21T01:09:34.953Z,10.23
2018-10-21T01:10:41.266Z,10.41
2018-10-21T01:11:47.410Z,10.44
2018-10-21T01:12:53.685Z,10.44
2018-10-21T01:13:59.889Z,10.40
2018-10-21T01:15:05.467Z,10.29
2018-10-21T01:16:16.553Z,10.23
2018-10-21T01:17:26.921Z,10.28
2018-10-21T01:18:33.162Z,10.37
2018-10-21T01:19:39.254Z,10.41
2018-10-21T01:20:45.282Z,10.31
2018-10-21T01:21:51.240Z,10.27
2018-10-21T01:22:57.580Z,10.32
2018-10-21T01:24:03.893Z,10.22
2018-10-21T01:25:09.853Z,10.36
2018-10-21T01:26:15.865Z,10.27
2018-10-21T01:27:21.899Z,10.17
2018-10-21T01:28:28.219Z,10.08
2018-10-21T01:29:34.518Z,10.12
2018-10-21T01:30:40.842Z,10.16
2018-10-21T01:31:46.960Z,10.17
2018-10-21T01:32:53.275Z,10.31
2018-10-21T01:33:59.570Z,10.19
2018-10-21T01:35:05.197Z,10.13
2018-10-21T01:36:11.310Z,10.07
2018-10-21T01:37:17.245Z,10.26
2018-10-21T01:38:23.891Z,10.38
2018-10-21T01:39:29.826Z,10.30
2018-10-21T01:40:35.133Z,10.19
2018-10-21T01:41:41.173Z,10.27
2018-10-21T01:42:47.205Z,10.37
2018-10-21T01:43:53.523Z,10.53
2018-10-21T01:45:00.530Z,10.39
2018-10-21T01:46:06.853Z,10.29
2018-10-21T01:47:12.965Z,10.29
2018-10-21T01:48:19.455Z,10.36
2018-10-21T01:49:25.778Z,10.44
2018-10-21T01:50:32.107Z,10.30
2018-10-21T01:51:38.214Z,10.19
2018-10-21T01:52:44.509Z,10.20
2018-10-21T01:53:50.835Z,10.30
2018-10-21T01:54:56.894Z,10.37
2018-10-21T01:56:02.916Z,10.35
2018-10-21T01:57:09.102Z,10.27
2018-10-21T01:58:15.671Z,10.41
2018-10-21T01:59:21.978Z,10.33
2018-10-21T02:00:28.302Z,10.27
2018-10-21T02:01:34.374Z,10.34
2018-10-21T02:02:40.711Z,10.25
2018-10-21T02:03:46.494Z,10.18
2018-10-21T02:04:52.695Z,10.21
2018-10-21T02:05:58.601Z,10.47
2018-10-21T02:07:04.153Z,10.39
2018-10-21T02:08:10.328Z,10.38
2018-10-21T02:09:16.316Z,10.33
2018-10-21T02:10:22.757Z,10.24
2018-10-21T02:11:28.704Z,10.17
2018-10-21T02:12:34.594Z,10.08
2018-10-21T02:13:40.810Z,10.04
2018-10-21T02:14:47.036Z,10.02
2018-10-21T02:15:53.210Z,10.31
2018-10-21T02:16:59.081Z,10.31
2018-10-21T02:18:04.299Z,10.15
2018-10-21T02:19:10.525Z,10.22
2018-10-21T02:20:16.465Z,10.19
2018-10-21T02:21:22.408Z,10.18
2018-10-21T02:22:28.641Z,10.16
2018-10-21T02:23:34.831Z,10.09
2018-10-21T02:24:41.031Z,10.23
2018-10-21T02:25:47.229Z,10.27
2018-10-21T02:26:53.231Z,10.21
2018-10-21T02:27:59.594Z,10.16
2018-10-21T02:29:05.156Z,10.16
2018-10-21T02:30:11.463Z,10.26
2018-10-21T02:31:17.376Z,10.15
2018-10-21T02:32:23.285Z,10.04
2018-10-21T02:33:29.631Z,10.05
2018-10-21T02:34:35.925Z,10.06
2018-10-21T02:35:42.107Z,10.09
2018-10-21T02:36:48.056Z,10.04
2018-10-21T02:37:53.953Z,10.04
2018-10-21T02:39:00.253Z,10.11
2018-10-21T02:40:05.607Z,10.05
2018-10-21T02:43:02.377Z,10.18
2018-10-21T02:44:08.753Z,10.10
2018-10-21T02:45:15.099Z,9.98
2018-10-21T02:46:20.637Z,9.92
2018-10-21T02:47:26.587Z,9.92
2018-10-21T02:48:32.590Z,10.10
2018-10-21T02:49:38.960Z,10.04
2018-10-21T02:50:45.399Z,10.04
2018-10-21T02:51:50.847Z,10.16
2018-10-21T02:52:57.156Z,10.08
2018-10-21T02:54:03.569Z,10.01
2018-10-21T02:55:10.694Z,9.94
2018-10-21T02:56:16.678Z,9.86
2018-10-21T02:57:22.683Z,9.91
2018-10-21T02:58:28.995Z,9.92
2018-10-21T02:59:35.153Z,10.06
2018-10-21T03:00:41.453Z,10.14
2018-10-21T03:01:47.647Z,10.14
2018-10-21T03:02:53.670Z,10.18
2018-10-21T03:03:59.985Z,10.04
2018-10-21T03:05:05.593Z,9.92
2018-10-21T03:06:11.652Z,10.02
2018-10-21T03:07:17.631Z,10.12
2018-10-21T03:08:23.609Z,10.11
2018-10-21T03:09:29.593Z,9.96
2018-10-21T03:10:35.887Z,9.96
2018-10-21T03:11:41.911Z,9.94
2018-10-21T03:12:48.187Z,10.01
2018-10-21T03:13:54.374Z,10.06
2018-10-21T03:15:00.772Z,10.04
2018-10-21T03:16:06.605Z,10.10
2018-10-21T03:17:12.749Z,10.19
2018-10-21T03:18:19.046Z,10.10
2018-10-21T03:19:25.571Z,10.16
2018-10-21T03:20:31.906Z,10.14
2018-10-21T03:21:37.940Z,10.09
2018-10-21T03:22:44.473Z,10.09
2018-10-21T03:23:51.342Z,10.17
2018-10-21T03:24:58.918Z,10.20
2018-10-21T03:26:04.268Z,10.12
2018-10-21T03:27:10.334Z,10.09
2018-10-21T03:28:16.952Z,10.15
2018-10-21T03:29:23.031Z,10.14
2018-10-21T03:30:29.055Z,10.16
2018-10-21T03:31:34.880Z,10.17
2018-10-21T03:32:41.038Z,10.16
2018-10-21T03:33:47.537Z,10.10
2018-10-21T03:34:54.109Z,10.10
2018-10-21T03:36:00.180Z,10.10
2018-10-21T03:37:05.498Z,10.11
2018-10-21T03:38:11.834Z,10.12
2018-10-21T03:39:18.139Z,10.12
2018-10-21T03:40:24.491Z,10.07
2018-10-21T03:41:30.949Z,10.12
2018-10-21T03:42:37.225Z,10.12
2018-10-21T03:43:43.233Z,10.16
2018-10-21T03:44:49.699Z,10.15
2018-10-21T03:45:56.065Z,10.12
2018-10-21T03:47:02.563Z,10.14
2018-10-21T03:48:08.977Z,10.18
2018-10-21T03:49:15.290Z,10.23
2018-10-21T03:50:21.783Z,10.25
2018-10-21T03:51:27.796Z,10.26
2018-10-21T03:52:33.816Z,10.26
2018-10-21T03:53:40.139Z,10.29
2018-10-21T03:54:45.919Z,10.26
2018-10-21T03:55:51.930Z,10.40
2018-10-21T03:56:57.974Z,10.41
2018-10-21T03:58:04.041Z,10.51
2018-10-21T03:59:10.239Z,10.65
2018-10-21T04:00:16.365Z,10.52
2018-10-21T04:01:22.389Z,10.48
2018-10-21T04:02:28.152Z,10.43
2018-10-21T04:03:33.812Z,10.38
2018-10-21T04:04:39.877Z,10.40
2018-10-21T04:05:45.963Z,10.50
2018-10-21T04:06:51.961Z,10.45
2018-10-21T04:07:57.954Z,10.51
2018-10-21T04:09:03.670Z,10.46
2018-10-21T04:10:10.066Z,10.49
2018-10-21T04:11:16.404Z,10.54
2018-10-21T04:12:22.129Z,10.64
2018-10-21T04:13:28.360Z,10.66
2018-10-21T04:14:35.266Z,10.50
2018-10-21T04:15:41.577Z,10.50
2018-10-21T04:16:47.573Z,10.39
2018-10-21T04:17:53.827Z,10.45
2018-10-21T04:18:59.792Z,10.60
2018-10-21T04:20:05.798Z,10.48
2018-10-21T04:21:12.539Z,10.61
2018-10-21T04:22:18.781Z,10.59
2018-10-21T04:23:24.920Z,10.60
2018-10-21T04:24:30.941Z,10.56
2018-10-21T04:25:37.305Z,10.59
2018-10-21T04:26:43.299Z,10.64
2018-10-21T04:27:49.565Z,10.54
2018-10-21T04:28:55.875Z,10.50
2018-10-21T04:30:02.346Z,10.47
2018-10-21T04:31:09.540Z,10.49
2018-10-21T04:32:16.111Z,10.64
2018-10-21T04:33:21.836Z,10.57
2018-10-21T04:34:27.875Z,10.70
2018-10-21T04:35:34.330Z,10.61
2018-10-21T04:36:40.519Z,10.46
2018-10-21T04:37:48.708Z,10.53
2018-10-21T04:39:06.010Z,10.47
2018-10-21T04:40:12.353Z,10.52
2018-10-21T04:41:18.875Z,10.48
2018-10-21T04:42:24.944Z,10.51
2018-10-21T04:43:31.340Z,10.61
2018-10-21T04:44:37.662Z,10.61
2018-10-21T04:45:44.005Z,10.56
2018-10-21T04:46:50.136Z,10.49
2018-10-21T04:47:56.610Z,10.46
2018-10-21T04:49:03.040Z,10.39
2018-10-21T04:50:09.355Z,10.45
2018-10-21T04:51:15.368Z,10.58
2018-10-21T04:52:21.119Z,10.55
2018-10-21T04:53:27.395Z,10.42
2018-10-21T04:54:33.723Z,10.43
2018-10-21T04:55:40.018Z,10.37
2018-10-21T04:56:46.050Z,10.32
2018-10-21T04:57:52.125Z,10.27
2018-10-21T04:58:58.096Z,10.24
2018-10-21T05:00:03.464Z,10.39
2018-10-21T05:01:09.448Z,10.47
2018-10-21T05:02:15.765Z,10.41
2018-10-21T05:03:21.855Z,10.41
2018-10-21T05:04:27.897Z,10.46
2018-10-21T05:05:33.905Z,10.32
2018-10-21T05:06:39.927Z,10.37
2018-10-21T05:07:46.215Z,10.36
2018-10-21T05:08:52.227Z,10.19
2018-10-21T05:09:58.326Z,10.15
2018-10-21T05:11:04.674Z,10.14
2018-10-21T05:12:10.710Z,10.11
2018-10-21T05:13:17.023Z,10.10
2018-10-21T05:14:23.081Z,10.02
2018-10-21T05:15:29.103Z,9.97
2018-10-21T05:16:35.265Z,10.01
2018-10-21T05:17:41.608Z,10.11
2018-10-21T05:18:47.616Z,10.03
2018-10-21T05:19:53.644Z,9.91
2018-10-21T05:20:59.714Z,9.88
2018-10-21T05:22:05.749Z,10.05
2018-10-21T05:23:12.203Z,10.18
2018-10-21T05:24:18.508Z,10.21
2018-10-21T05:25:24.808Z,10.22
2018-10-21T05:26:30.811Z,10.16
2018-10-21T05:27:36.963Z,10.08
2018-10-21T05:28:43.480Z,9.97
2018-10-21T05:29:49.500Z,10.05
2018-10-21T05:31:03.262Z,10.00
2018-10-21T05:32:14.524Z,10.05
2018-10-21T05:33:20.797Z,10.05
2018-10-21T05:34:26.899Z,9.98
2018-10-21T05:35:32.883Z,9.95
2018-10-21T05:36:38.942Z,9.99
2018-10-21T05:37:45.278Z,10.13
2018-10-21T05:38:51.454Z,10.19
2018-10-21T05:39:57.460Z,10.06
2018-10-21T05:41:03.636Z,10.13
2018-10-21T05:42:09.676Z,10.05
2018-10-21T05:43:15.677Z,9.97
2018-10-21T05:44:21.681Z,9.91
2018-10-21T05:45:27.946Z,9.86
2018-10-21T05:46:34.006Z,9.78
2018-10-21T05:47:39.684Z,9.67
2018-10-21T05:48:45.607Z,9.69
2018-10-21T05:49:51.905Z,9.70
2018-10-21T05:50:57.904Z,9.77
2018-10-21T05:52:10.385Z,9.74
2018-10-21T05:53:16.683Z,9.80
2018-10-21T05:54:22.887Z,9.73
2018-10-21T05:55:28.910Z,9.78
2018-10-21T05:56:35.098Z,9.96
2018-10-21T05:57:41.177Z,10.09
2018-10-21T05:58:47.468Z,10.04
2018-10-21T05:59:53.466Z,10.04
2018-10-21T06:00:59.711Z,10.03
2018-10-21T06:02:05.750Z,9.99
2018-10-21T06:03:11.723Z,10.03
2018-10-21T06:04:17.773Z,9.84
2018-10-21T06:05:23.292Z,9.62
2018-10-21T06:06:29.355Z,9.50
2018-10-21T06:07:35.375Z,9.50
2018-10-21T06:08:41.437Z,9.51
2018-10-21T06:09:47.871Z,9.53
2018-10-21T06:10:53.847Z,9.50
2018-10-21T06:11:59.896Z,9.65
2018-10-21T06:13:05.529Z,9.75
2018-10-21T06:14:11.543Z,9.61
2018-10-21T06:15:17.526Z,9.47
2018-10-21T06:16:23.550Z,9.38
2018-10-21T06:17:29.520Z,9.60
2018-10-21T06:18:35.510Z,9.81
2018-10-21T06:38:30.074Z,9.82
2018-10-21T06:39:36.046Z,9.93
2018-10-21T06:40:42.243Z,10.06
2018-10-21T06:41:48.263Z,10.29
2018-10-21T06:42:54.827Z,10.43
2018-10-21T06:44:01.975Z,10.56
2018-10-21T06:45:08.231Z,10.41
2018-10-21T06:46:14.971Z,10.34
2018-10-21T06:47:21.333Z,10.19
2018-10-21T06:48:28.118Z,10.23
2018-10-21T06:49:35.380Z,10.38
2018-10-21T06:50:41.463Z,10.38
2018-10-21T06:51:50.704Z,10.34
2018-10-21T06:52:57.313Z,10.21
2018-10-21T06:54:04.330Z,10.14
2018-10-21T06:55:10.719Z,10.12
2018-10-21T06:56:17.231Z,10.27
2018-10-21T06:57:24.094Z,10.27
2018-10-21T06:58:30.748Z,10.27
2018-10-21T06:59:37.290Z,10.46
2018-10-21T07:00:43.854Z,10.57
2018-10-21T07:01:50.545Z,10.46
2018-10-21T07:02:57.206Z,10.43
2018-10-21T07:04:03.794Z,10.48
2018-10-21T07:05:09.565Z,10.35
2018-10-21T07:06:16.611Z,10.21
2018-10-21T07:07:23.280Z,10.24
2018-10-21T07:08:29.456Z,10.40
2018-10-21T07:09:36.481Z,10.43
2018-10-21T07:10:43.426Z,10.27
2018-10-21T07:11:49.524Z,10.20
2018-10-21T07:12:56.054Z,10.18
2018-10-21T07:14:02.489Z,10.27
2018-10-21T07:15:09.066Z,10.21
2018-10-21T07:16:15.249Z,10.16
2018-10-21T07:17:22.001Z,10.11
2018-10-21T07:18:28.433Z,10.11
2018-10-21T07:19:35.115Z,10.11
2018-10-21T07:20:41.494Z,10.11
2018-10-21T07:21:47.651Z,10.12
2018-10-21T07:22:54.413Z,10.15
2018-10-21T07:24:01.070Z,10.22
2018-10-21T07:25:07.636Z,10.19
2018-10-21T07:26:13.571Z,10.17
2018-10-21T07:27:19.572Z,10.16
2018-10-21T07:28:25.920Z,10.20
2018-10-21T07:29:32.315Z,10.28
2018-10-21T07:30:38.996Z,10.41
2018-10-21T07:31:45.886Z,10.34
2018-10-21T07:32:52.760Z,10.31
2018-10-21T07:33:58.865Z,10.25
2018-10-21T07:35:05.324Z,10.27
2018-10-21T07:36:12.079Z,10.28
2018-10-21T07:37:19.599Z,10.30
2018-10-21T07:38:26.773Z,10.28
2018-10-21T07:39:33.586Z,10.22
2018-10-21T07:40:40.019Z,10.19
2018-10-21T07:41:47.168Z,10.19
2018-10-21T07:42:53.720Z,10.21
2018-10-21T07:44:00.094Z,10.30
2018-10-21T07:45:06.082Z,10.33
2018-10-21T07:46:12.525Z,10.38
2018-10-21T07:47:18.918Z,10.59
2018-10-21T07:48:25.826Z,10.68
2018-10-21T07:49:32.784Z,10.54
2018-10-21T07:50:39.345Z,10.51
2018-10-21T07:51:47.007Z,10.62
2018-10-21T07:53:00.158Z,10.63
2018-10-21T07:54:08.919Z,10.61
2018-10-21T07:55:16.721Z,10.64
2018-10-21T07:56:28.418Z,10.68
2018-10-21T07:57:35.328Z,10.69
2018-10-21T07:58:41.966Z,10.73
2018-10-21T07:59:51.649Z,10.81
2018-10-21T08:00:58.807Z,11.03
2018-10-21T08:02:05.454Z,11.18
2018-10-21T08:03:12.090Z,10.97
2018-10-21T08:04:18.527Z,10.87
2018-10-21T08:05:26.480Z,10.99
2018-10-21T08:08:13.170Z,11.26
2018-10-21T08:09:19.878Z,11.53
2018-10-21T08:10:26.579Z,11.67
2018-10-21T08:11:33.228Z,11.42
2018-10-21T08:12:39.195Z,11.20
2018-10-21T08:13:45.897Z,11.18
2018-10-21T08:14:52.301Z,11.15
2018-10-21T08:16:13.137Z,11.20
2018-10-21T08:21:44.737Z,11.67
2018-10-21T08:22:50.735Z,11.64
2018-10-21T08:23:57.145Z,11.93
2018-10-21T08:25:03.756Z,11.94
2018-10-21T08:26:10.268Z,11.84
2018-10-21T08:27:16.854Z,11.67
2018-10-21T08:28:23.380Z,11.85
2018-10-21T08:29:29.366Z,11.78
2018-10-21T08:30:35.395Z,11.82
2018-10-21T08:31:41.342Z,11.80
2018-10-21T08:32:47.250Z,11.73
2018-10-21T08:33:53.633Z,11.78
2018-10-21T08:34:59.820Z,11.76
2018-10-21T08:36:06.614Z,11.87
2018-10-21T08:37:13.078Z,11.94
2018-10-21T08:38:19.276Z,12.01
2018-10-21T08:39:25.540Z,12.19
2018-10-21T08:40:31.632Z,12.35
2018-10-21T08:41:37.809Z,12.11
2018-10-21T08:42:44.661Z,12.16
2018-10-21T08:43:50.597Z,12.05
2018-10-21T08:44:57.452Z,12.00
2018-10-21T08:46:03.741Z,11.97
2018-10-21T08:47:09.840Z,12.04
2018-10-21T08:48:16.151Z,12.07
2018-10-21T08:49:22.222Z,12.18
2018-10-21T08:50:30.022Z,12.05
2018-10-21T08:51:36.644Z,12.29
2018-10-21T08:52:42.570Z,12.20
2018-10-21T08:53:48.822Z,12.14
2018-10-21T08:54:55.175Z,12.03
2018-10-21T08:56:01.339Z,12.13
2018-10-21T08:57:07.721Z,12.28
2018-10-21T08:58:14.020Z,12.33
2018-10-21T08:59:20.761Z,12.19
2018-10-21T09:00:27.299Z,12.12
2018-10-21T09:01:33.468Z,12.34
2018-10-21T09:02:40.010Z,12.45
2018-10-21T09:03:46.481Z,12.24
2018-10-21T09:04:52.799Z,12.30
2018-10-21T09:05:58.900Z,12.33
2018-10-21T09:07:04.975Z,12.27
2018-10-21T09:08:11.928Z,12.45
2018-10-21T09:09:19.211Z,12.73
2018-10-21T09:10:26.137Z,12.96
2018-10-21T09:11:32.268Z,12.97
2018-10-21T09:12:39.231Z,12.84
2018-10-21T09:13:46.022Z,12.80
2018-10-21T09:14:54.057Z,12.85
2018-10-21T09:16:01.038Z,12.77
2018-10-21T09:17:08.830Z,12.61
2018-10-21T09:18:15.380Z,12.54
2018-10-21T09:19:21.366Z,12.59
2018-10-21T09:20:27.728Z,12.61
2018-10-21T09:21:33.883Z,12.62
2018-10-21T09:22:40.668Z,12.74
2018-10-21T09:23:54.963Z,12.77
2018-10-21T09:25:01.977Z,12.84
2018-10-21T09:26:09.218Z,12.67
2018-10-21T09:27:15.258Z,12.78
2018-10-21T09:28:21.373Z,12.93
2018-10-21T09:29:27.899Z,13.08
2018-10-21T09:30:33.908Z,13.18
2018-10-21T09:31:40.854Z,13.12
2018-10-21T09:32:47.188Z,13.10
2018-10-21T09:33:53.133Z,13.23
2018-10-21T09:35:01.577Z,13.41
2018-10-21T09:36:09.025Z,13.50
2018-10-21T09:37:15.397Z,13.65
2018-10-21T09:38:21.528Z,13.72
2018-10-21T09:39:27.815Z,13.57
2018-10-21T09:40:33.836Z,13.65
2018-10-21T09:41:41.175Z,13.27
2018-10-21T09:42:48.017Z,13.04
2018-10-21T09:43:54.512Z,13.05
2018-10-21T09:45:05.018Z,12.98
2018-10-21T09:46:11.400Z,12.92
2018-10-21T09:47:18.753Z,12.99
2018-10-21T09:48:24.978Z,13.10
2018-10-21T09:49:31.999Z,13.05
2018-10-21T09:50:39.093Z,13.36
2018-10-21T09:51:46.368Z,13.46
2018-10-21T09:52:52.880Z,13.30
2018-10-21T09:53:59.450Z,13.20
2018-10-21T09:55:05.138Z,13.12
2018-10-21T09:56:11.785Z,13.38
2018-10-21T09:57:18.479Z,13.54
2018-10-21T09:58:24.773Z,13.63
2018-10-21T09:59:32.193Z,13.69
2018-10-21T10:00:38.689Z,13.77
2018-10-21T10:03:18.198Z,13.36
2018-10-21T10:04:24.139Z,13.53
2018-10-21T10:05:31.480Z,13.36
2018-10-21T10:06:37.998Z,13.31
2018-10-21T10:07:44.253Z,13.10
2018-10-21T10:08:50.670Z,13.02
2018-10-21T10:09:57.359Z,13.10
2018-10-21T10:11:03.863Z,13.16
2018-10-21T10:12:11.158Z,13.12
2018-10-21T10:13:18.055Z,12.90
2018-10-21T10:14:25.146Z,12.70
2018-10-21T10:15:33.998Z,12.61
2018-10-21T10:16:40.526Z,12.73
2018-10-21T10:17:47.203Z,12.81
2018-10-21T10:18:53.656Z,12.69
2018-10-21T10:20:00.319Z,12.58
2018-10-21T10:21:06.561Z,12.59
2018-10-21T10:22:12.339Z,12.58
2018-10-21T10:23:18.937Z,12.57
2018-10-21T10:24:26.023Z,12.58
2018-10-21T10:25:32.291Z,12.53
2018-10-21T10:26:38.569Z,12.51
2018-10-21T10:27:46.869Z,12.54
2018-10-21T10:28:53.468Z,12.54
2018-10-21T10:30:00.497Z,12.55
2018-10-21T10:31:07.230Z,12.55
2018-10-21T10:32:13.819Z,12.54
2018-10-21T10:33:21.418Z,12.49
2018-10-21T10:34:27.367Z,12.45
2018-10-21T10:35:33.307Z,12.41
2018-10-21T10:36:39.700Z,12.40
2018-10-21T10:37:46.166Z,12.40
2018-10-21T10:38:52.435Z,12.44
2018-10-21T10:39:58.580Z,12.42
2018-10-21T10:41:04.357Z,12.40
2018-10-21T10:42:10.853Z,12.39
2018-10-21T10:43:17.261Z,12.38
2018-10-21T10:44:23.937Z,12.36
2018-10-21T10:45:30.426Z,12.37
2018-10-21T10:46:36.100Z,12.44
2018-10-21T10:47:42.359Z,12.45
2018-10-21T10:48:48.546Z,12.43
2018-10-21T10:49:55.545Z,12.38
2018-10-21T10:51:01.705Z,12.35
2018-10-21T10:52:08.067Z,12.32
2018-10-21T10:53:14.125Z,12.36
2018-10-21T10:54:20.319Z,12.51
2018-10-21T10:55:26.816Z,12.66
2018-10-21T10:56:33.087Z,12.80
2018-10-21T10:57:39.708Z,12.94
2018-10-21T10:58:45.430Z,13.06
2018-10-21T10:59:51.957Z,13.26
2018-10-21T11:00:58.016Z,13.38
2018-10-21T11:02:04.069Z,13.56
2018-10-21T11:03:09.886Z,13.51
2018-10-21T11:04:15.862Z,13.46
2018-10-21T11:05:22.582Z,13.69
2018-10-21T11:06:29.183Z,13.73
2018-10-21T11:07:36.438Z,13.89
2018-10-21T11:08:45.948Z,14.17
2018-10-21T11:09:53.347Z,14.19
2018-10-21T11:10:59.508Z,13.89
2018-10-21T11:12:05.725Z,13.89
2018-10-21T11:13:14.181Z,13.97
2018-10-21T11:14:21.543Z,13.88
2018-10-21T11:15:27.860Z,13.91
2018-10-21T11:16:34.754Z,14.10
2018-10-21T11:17:41.136Z,14.28
2018-10-21T11:18:47.653Z,14.02
2018-10-21T11:19:54.204Z,14.25
2018-10-21T11:21:00.137Z,14.26
2018-10-21T11:22:05.793Z,14.21
2018-10-21T11:23:12.210Z,14.26
2018-10-21T11:24:18.511Z,14.12
2018-10-21T11:25:24.156Z,14.09
2018-10-21T11:26:30.097Z,14.30
2018-10-21T11:27:36.006Z,14.15
2018-10-21T11:28:42.382Z,14.08
2018-10-21T11:29:48.727Z,14.17
2018-10-21T11:30:55.298Z,14.41
2018-10-21T11:32:02.557Z,14.76
2018-10-21T11:33:29.224Z,14.90
2018-10-21T11:34:35.689Z,15.08
2018-10-21T11:35:42.146Z,15.07
2018-10-21T11:36:55.759Z,15.24
2018-10-21T11:38:03.217Z,15.35
2018-10-21T11:39:11.139Z,15.24
2018-10-21T11:40:21.843Z,15.05
2018-10-21T11:41:32.945Z,14.99
2018-10-21T11:42:44.045Z,14.83
2018-10-21T11:43:52.541Z,14.94
2018-10-21T11:44:59.562Z,14.95
2018-10-21T11:46:06.728Z,14.78
2018-10-21T11:47:13.511Z,14.53
2018-10-21T11:48:20.846Z,14.59
2018-10-21T11:49:27.003Z,14.66
2018-10-21T11:50:36.934Z,14.70
2018-10-21T11:51:47.703Z,14.98
2018-10-21T11:52:53.894Z,14.91
2018-10-21T11:54:03.537Z,14.98
2018-10-21T11:55:09.108Z,14.98
2018-10-21T11:56:16.260Z,15.08
2018-10-21T11:57:22.673Z,15.14
2018-10-21T11:58:29.013Z,15.26
2018-10-21T11:59:35.306Z,15.14
2018-10-21T12:00:43.044Z,15.12
2018-10-21T12:01:49.791Z,15.02
2018-10-21T12:02:56.996Z,14.70
2018-10-21T12:04:03.681Z,14.46
2018-10-21T12:05:10.427Z,14.27
2018-10-21T12:06:17.313Z,14.22
2018-10-21T12:07:23.847Z,14.45
2018-10-21T12:08:31.107Z,14.42
2018-10-21T12:09:37.455Z,14.27
2018-10-21T12:10:44.890Z,14.30
2018-10-21T12:11:52.066Z,14.53
2018-10-21T12:12:58.087Z,14.94
2018-10-21T12:14:04.108Z,15.30
2018-10-21T12:15:10.446Z,15.10
2018-10-21T12:16:16.614Z,14.89
2018-10-21T12:17:23.122Z,14.92
2018-10-21T12:18:29.458Z,14.97
2018-10-21T12:19:35.797Z,14.98
2018-10-21T12:20:43.342Z,15.12
2018-10-21T12:21:49.851Z,15.51
2018-10-21T12:22:56.136Z,15.20
2018-10-21T12:24:02.944Z,15.12
2018-10-21T12:25:08.922Z,15.08
2018-10-21T12:26:15.149Z,15.05
2018-10-21T12:27:21.656Z,15.03
2018-10-21T12:28:27.898Z,14.96
2018-10-21T12:29:34.962Z,15.08
2018-10-21T12:30:41.685Z,15.65
2018-10-21T12:31:48.937Z,15.62
2018-10-21T12:32:56.760Z,15.29
2018-10-21T12:34:03.209Z,15.57
2018-10-21T12:35:09.102Z,16.03
2018-10-21T12:36:15.446Z,16.36
2018-10-21T12:37:22.250Z,16.64
2018-10-21T12:38:28.170Z,16.87
2018-10-21T12:39:35.247Z,16.70
2018-10-21T12:40:43.349Z,17.02
2018-10-21T12:41:50.030Z,17.23
2018-10-21T12:42:56.881Z,16.98
2018-10-21T12:44:03.467Z,16.02
2018-10-21T12:45:09.109Z,15.90
2018-10-21T12:46:23.534Z,16.37
2018-10-21T12:47:36.646Z,16.61
2018-10-21T12:49:32.009Z,16.96
2018-10-21T12:50:38.413Z,17.20
2018-10-21T12:51:49.800Z,17.57
2018-10-21T12:53:02.271Z,17.80
2018-10-21T12:54:11.173Z,17.67
2018-10-21T12:55:22.047Z,17.69
2018-10-21T12:56:53.661Z,18.04
2018-10-21T12:57:59.756Z,17.43
2018-10-21T12:59:07.733Z,16.24
2018-10-21T13:00:14.203Z,16.10
2018-10-21T13:01:20.363Z,16.69
2018-10-21T13:02:27.092Z,16.93
2018-10-21T13:03:34.066Z,17.50
2018-10-21T13:04:40.266Z,16.95
2018-10-21T13:05:48.536Z,16.45
2018-10-21T13:06:56.046Z,16.00
2018-10-21T13:08:03.202Z,15.97
2018-10-21T13:09:11.926Z,16.46
2018-10-21T13:10:19.446Z,16.28
2018-10-21T13:11:27.694Z,16.34
2018-10-21T13:12:35.440Z,16.76
2018-10-21T13:13:43.348Z,17.14
2018-10-21T13:14:50.864Z,17.44
2018-10-21T13:16:00.368Z,18.09
2018-10-21T13:17:08.214Z,17.65
2018-10-21T13:18:16.640Z,17.62
2018-10-21T13:19:24.503Z,17.86
2018-10-21T13:20:32.163Z,17.88
2018-10-21T13:21:40.320Z,17.46
2018-10-21T13:22:48.690Z,17.36
2018-10-21T13:23:56.548Z,17.63
2018-10-21T13:25:05.541Z,17.43
2018-10-21T13:26:13.473Z,17.04
2018-10-21T13:27:21.502Z,17.29
2018-10-21T13:28:29.648Z,17.44
2018-10-21T13:29:36.072Z,17.15
2018-10-21T13:30:42.149Z,16.53
2018-10-21T13:31:49.792Z,16.75
2018-10-21T13:32:56.044Z,16.86
2018-10-21T13:34:02.727Z,16.87
2018-10-21T13:35:10.770Z,16.90
2018-10-21T13:36:16.867Z,17.24
2018-10-21T13:37:25.318Z,17.30
2018-10-21T13:38:31.997Z,17.17
2018-10-21T13:39:38.130Z,17.36
2018-10-21T13:40:45.354Z,17.21
2018-10-21T13:41:51.778Z,17.46
2018-10-21T13:42:57.944Z,17.42
2018-10-21T13:44:05.161Z,17.02
2018-10-21T13:45:11.969Z,16.52
2018-10-21T13:46:18.112Z,16.35
2018-10-21T13:47:25.092Z,15.82
2018-10-21T13:48:31.849Z,15.91
2018-10-21T13:49:38.511Z,15.84
2018-10-21T13:50:45.342Z,15.64
2018-10-21T13:51:51.402Z,15.41
2018-10-21T13:52:58.448Z,15.56
2018-10-21T13:54:04.198Z,15.81
2018-10-21T13:55:10.314Z,15.83
2018-10-21T13:56:17.858Z,15.81
2018-10-21T13:57:24.818Z,15.65
2018-10-21T13:59:51.078Z,15.46
2018-10-21T14:00:57.266Z,16.04
2018-10-21T14:02:04.285Z,16.31
2018-10-21T14:03:10.347Z,16.50
2018-10-21T14:04:16.459Z,16.60
2018-10-21T14:05:23.735Z,15.91
2018-10-21T14:06:30.235Z,15.93
2018-10-21T14:07:36.302Z,16.12
2018-10-21T14:08:44.179Z,16.15
2018-10-21T14:09:50.499Z,15.81
2018-10-21T14:10:56.559Z,15.92
2018-10-21T14:12:04.224Z,15.87
2018-10-21T14:13:10.681Z,15.95
2018-10-21T14:14:17.028Z,16.50
2018-10-21T14:15:23.763Z,16.47
2018-10-21T14:16:30.980Z,16.07
2018-10-21T14:17:37.469Z,16.73
2018-10-21T14:18:45.191Z,17.12
2018-10-21T14:19:51.528Z,17.35
2018-10-21T14:20:58.660Z,16.86
2018-10-21T14:22:04.669Z,16.31
2018-10-21T14:23:11.671Z,16.23
2018-10-21T14:24:17.282Z,15.83
2018-10-21T14:25:23.204Z,15.61
2018-10-21T14:26:31.105Z,16.00
2018-10-21T14:27:37.704Z,16.61
2018-10-21T14:28:44.906Z,16.87
2018-10-21T14:29:52.513Z,16.86
2018-10-21T14:30:58.596Z,16.49
2018-10-21T14:32:05.325Z,16.12
2018-10-21T14:33:13.161Z,16.01
2018-10-21T14:34:19.485Z,16.09
2018-10-21T14:35:26.378Z,16.29
2018-10-21T14:36:33.497Z,16.59
2018-10-21T14:37:39.650Z,16.26
2018-10-21T14:38:47.124Z,15.99
2018-10-21T14:39:53.689Z,15.99
2018-10-21T14:41:00.896Z,15.95
2018-10-21T14:42:08.667Z,15.94
2018-10-21T14:43:16.022Z,15.70
2018-10-21T14:44:22.350Z,15.95
2018-10-21T14:45:29.238Z,15.90
2018-10-21T14:46:36.852Z,15.98
2018-10-21T14:47:42.798Z,15.90
2018-10-21T14:48:50.181Z,15.86
2018-10-21T14:50:01.719Z,16.19
2018-10-21T14:51:09.562Z,16.06
2018-10-21T14:52:17.209Z,16.38